Sprinkle, Texas
Current Conditions -  °F | °C
As of 11:35 AM on Monday 22 Dec 2014 (Local Time) from KEDC Reporting Station
Clear Clear  
Wind Chill: 68°   Ceiling: Unl
Heat Index: 68°   Visibility: 10mi
Dew Point: 54°   Wind: 12mph
Humidity: 60%   Direction: 190°S
Pressure: 29.7"   Gusts: 16mph
Location:  30.3539°N, 97.659°W
Report Text: KEDC 221735Z AUTO 19010G14KT 10SM CLR 20/12 A2970 RMK AO2
Loading
Personal Weather Stations






























Interactive Weather Map New forecast layout! Learn more

10-Day Weather Forecast

Advertisements
Track Severe Weather on mobile